Faust — SLKQ — position and weather

sailwx.info

Track history (hours):
 
Tides and Currents Weather Stations Pressure Air Temp Water Temp Dewpoint Dewpoint Depression Visibility Wind Speed Wind Dir Waves Ship Positions

Faust

Last reported at 2014-Sep-11 16:33 UTC. Time now 2014-Sep-19 05:49 UTC.
Position S 25°24' E 154°04'.

Length 227.8 m; beam 32.3 m; draft 9.5 m.

Type: Cargo ship. MMSI: 266260000.

Date/timePositionNaut miles runAvg speedWind from/ knotsBaromVisibWave heightAir tempDewpointWater temp
2014-Sep-11 16:33S 25°24' E 154°04'1312.8
2014-Sep-11 15:33S 25°37' E 154°03'1312.4
2014-Sep-11 14:33S 25°50' E 154°03'1212.2
2014-Sep-11 13:33S 26°02' E 154°02'1211.8
2014-Sep-11 12:33S 26°13' E 154°02'1211.9
2014-Sep-11 11:33S 26°25' E 154°01'1211.9
2014-Sep-11 10:33S 26°37' E 154°01'1211.9
2014-Sep-11 09:33S 26°49' E 154°00'1212.3
2014-Sep-11 08:33S 27°01' E 153°59'1412.6
2014-Sep-11 07:28S 27°15' E 153°59'32312.0
2014-Sep-10 04:32S 32°34' E 152°54'1212.5
2014-Sep-10 03:33S 32°44' E 152°46'1312.3
2014-Sep-10 02:29S 32°55' E 152°37'1512.3
2014-Sep-10 01:16S 33°07' E 152°28'1112.0
2014-Sep-10 00:23S 33°15' E 152°19'6312.4
2014-Sep-09 19:19S 34°04' E 151°32'912.1
2014-Sep-09 18:33S 34°09' E 151°23'1211.8
2014-Sep-09 17:33S 34°15' E 151°11'1212.0
2014-Sep-09 16:33S 34°22' E 150°59'173 5.9
2014-Sep-08 11:12S 37°12' E 150°14'1013.9
2014-Sep-08 10:28S 37°22' E 150°10'1314.1
2014-Sep-08 09:33S 37°34' E 150°05'1414.0
2014-Sep-08 08:33S 37°45' E 149°55'1413.8
2014-Sep-08 07:32S 37°54' E 149°41'5413.5
2014-Sep-08 03:33S 38°27' E 148°47'1614.4
2014-Sep-08 02:29S 38°37' E 148°32'1314.5
2014-Sep-08 01:34S 38°45' E 148°18'1414.4
2014-Sep-08 00:34S 38°51' E 148°01'1414.3
2014-Sep-07 23:34S 38°56' E 147°44'1514.8
2014-Sep-07 22:34S 39°01' E 147°26'1514.9
2014-Sep-07 21:34S 39°06' E 147°08'1515.3
2014-Sep-07 20:34S 39°11' E 146°50'1615.7
2014-Sep-07 19:34S 39°16' E 146°30'1615.4
2014-Sep-07 18:33S 39°14' E 146°11'1616.2
2014-Sep-07 17:34S 39°05' E 145°53'1615.9
2014-Sep-07 16:34S 38°57' E 145°36'1615.9
2014-Sep-07 15:34S 38°48' E 145°19'1615.9
2014-Sep-07 14:34S 38°40' E 145°02'23 1.1
2014-Sep-06 17:29S 38°18' E 144°55'1212.4
2014-Sep-06 16:33S 38°17' E 144°40'1010.4
2014-Sep-06 15:33S 38°24' E 144°30'10 9.5
2014-Sep-06 14:33S 38°32' E 144°23'9 9.4
2014-Sep-06 13:33S 38°40' E 144°17'10 9.5
2014-Sep-06 12:33S 38°48' E 144°11'13 6.6
2014-Sep-06 10:32S 38°60' E 144°02'2 1.4
2014-Sep-06 09:22S 38°59' E 144°00'1 1.7
2014-Sep-06 08:33S 38°58' E 143°59'2 1.7
2014-Sep-06 07:21S 38°57' E 143°57'5 1.8
2014-Sep-06 04:23S 38°55' E 143°50'38 9.8
2014-Sep-06 00:29S 38°56' E 143°01'  
Track history (hours):
 
Tides and Currents Weather Stations Pressure Air Temp Water Temp Dewpoint Dewpoint Depression Visibility Wind Speed Wind Dir Waves Ship Positions

Faust

Last reported at 2014-Sep-11 16:33 UTC. Time now 2014-Sep-19 05:49 UTC.
Position S 25°24' E 154°04'.

Length 227.8 m; beam 32.3 m; draft 9.5 m.

Type: Cargo ship. MMSI: 266260000.

Date/timePositionNaut miles runAvg speedWind from/ knotsBaromVisibWave heightAir tempDewpointWater temp
2014-Sep-11 16:33S 25°24' E 154°04'1312.8
2014-Sep-11 15:33S 25°37' E 154°03'1312.4
2014-Sep-11 14:33S 25°50' E 154°03'1212.2
2014-Sep-11 13:33S 26°02' E 154°02'1211.8
2014-Sep-11 12:33S 26°13' E 154°02'1211.9
2014-Sep-11 11:33S 26°25' E 154°01'1211.9
2014-Sep-11 10:33S 26°37' E 154°01'1211.9
2014-Sep-11 09:33S 26°49' E 154°00'1212.3
2014-Sep-11 08:33S 27°01' E 153°59'1412.6
2014-Sep-11 07:28S 27°15' E 153°59'32312.0
2014-Sep-10 04:32S 32°34' E 152°54'1212.5
2014-Sep-10 03:33S 32°44' E 152°46'1312.3
2014-Sep-10 02:29S 32°55' E 152°37'1512.3
2014-Sep-10 01:16S 33°07' E 152°28'1112.0
2014-Sep-10 00:23S 33°15' E 152°19'6312.4
2014-Sep-09 19:19S 34°04' E 151°32'912.1
2014-Sep-09 18:33S 34°09' E 151°23'1211.8
2014-Sep-09 17:33S 34°15' E 151°11'1212.0
2014-Sep-09 16:33S 34°22' E 150°59'173 5.9
2014-Sep-08 11:12S 37°12' E 150°14'1013.9
2014-Sep-08 10:28S 37°22' E 150°10'1314.1
2014-Sep-08 09:33S 37°34' E 150°05'1414.0
2014-Sep-08 08:33S 37°45' E 149°55'1413.8
2014-Sep-08 07:32S 37°54' E 149°41'5413.5
2014-Sep-08 03:33S 38°27' E 148°47'1614.4
2014-Sep-08 02:29S 38°37' E 148°32'1314.5
2014-Sep-08 01:34S 38°45' E 148°18'1414.4
2014-Sep-08 00:34S 38°51' E 148°01'1414.3
2014-Sep-07 23:34S 38°56' E 147°44'1514.8
2014-Sep-07 22:34S 39°01' E 147°26'1514.9
2014-Sep-07 21:34S 39°06' E 147°08'1515.3
2014-Sep-07 20:34S 39°11' E 146°50'1615.7
2014-Sep-07 19:34S 39°16' E 146°30'1615.4
2014-Sep-07 18:33S 39°14' E 146°11'1616.2
2014-Sep-07 17:34S 39°05' E 145°53'1615.9
2014-Sep-07 16:34S 38°57' E 145°36'1615.9
2014-Sep-07 15:34S 38°48' E 145°19'1615.9
2014-Sep-07 14:34S 38°40' E 145°02'23 1.1
2014-Sep-06 17:29S 38°18' E 144°55'1212.4
2014-Sep-06 16:33S 38°17' E 144°40'1010.4
2014-Sep-06 15:33S 38°24' E 144°30'10 9.5
2014-Sep-06 14:33S 38°32' E 144°23'9 9.4
2014-Sep-06 13:33S 38°40' E 144°17'10 9.5
2014-Sep-06 12:33S 38°48' E 144°11'13 6.6
2014-Sep-06 10:32S 38°60' E 144°02'2 1.4
2014-Sep-06 09:22S 38°59' E 144°00'1 1.7
2014-Sep-06 08:33S 38°58' E 143°59'2 1.7
2014-Sep-06 07:21S 38°57' E 143°57'5 1.8
2014-Sep-06 04:23S 38°55' E 143°50'38 9.8
2014-Sep-06 00:29S 38°56' E 143°01'  

Dump ship's entire track history